Time;durP1;ratioP1;P1;durP2;ratioP2;P2;SDS_P1;SDS_P2;PMS_P1;PMS_P2;Temp;Humidity;BMP_temperature;BMP_pressure;BME280_temperature;BME280_humidity;BME280_pressure;Samples;Min_cycle;Max_cycle;Signal;HPM_P1;HPM_P2
2021/08/25 05:02:56;;;;;;;6.82;6.22;;;;;;;17.52;73.73;94583.22;5005050;23;20143;-79
2021/08/25 05:05:21;;;;;;;6.85;6.35;;;;;;;17.65;72.94;94577.03;4955975;28;20038;-81
2021/08/25 05:07:46;;;;;;;6.68;6.10;;;;;;;17.79;72.88;94578.41;4972413;28;20038;-81
2021/08/25 05:10:12;;;;;;;6.45;5.93;;;;;;;17.87;71.07;94568.44;4980524;28;20530;-82
2021/08/25 05:12:37;;;;;;;6.20;5.68;;;;;;;17.99;70.56;94559.78;4961681;28;20015;-81
2021/08/25 05:15:08;;;;;;;6.18;5.53;;;;;;;18.12;70.55;94562.19;4969960;28;20034;-82
2021/08/25 05:17:33;;;;;;;6.18;5.68;;;;;;;18.19;70.64;94565.50;4985455;28;20018;-81
2021/08/25 05:20:00;;;;;;;5.88;5.35;;;;;;;18.30;70.18;94562.09;4989763;28;20025;-81
2021/08/25 05:22:25;;;;;;;6.28;5.50;;;;;;;18.37;71.04;94566.19;4970044;28;20026;-81
2021/08/25 05:24:51;;;;;;;6.50;5.85;;;;;;;18.46;71.38;94568.47;4989560;28;20470;-81
2021/08/25 05:27:16;;;;;;;5.93;5.53;;;;;;;18.60;71.26;94564.63;4955563;28;20037;-81
2021/08/25 05:29:42;;;;;;;6.75;6.13;;;;;;;18.95;70.03;94566.16;4955682;28;20037;-81
2021/08/25 05:32:07;;;;;;;6.85;5.95;;;;;;;19.03;69.18;94562.41;4952749;28;20031;-82
2021/08/25 05:34:33;;;;;;;5.93;5.53;;;;;;;19.11;70.13;94569.88;4970920;28;20026;-81
2021/08/25 05:36:58;;;;;;;7.57;5.45;;;;;;;19.32;68.92;94566.66;4990043;28;20468;-83
2021/08/25 05:39:23;;;;;;;5.97;5.30;;;;;;;19.64;68.39;94572.25;4971553;28;20408;-79
2021/08/25 05:41:49;;;;;;;6.72;6.13;;;;;;;21.44;63.37;94577.84;4972504;28;20467;-81
2021/08/25 05:44:14;;;;;;;14.20;5.85;;;;;;;22.72;57.67;94575.28;4988895;28;20022;-80
2021/08/25 05:46:40;;;;;;;6.20;5.68;;;;;;;25.34;50.32;94580.97;4966318;28;20038;-77
2021/08/25 05:49:06;;;;;;;10.45;6.80;;;;;;;23.25;56.46;94574.22;4936588;28;20025;-78
2021/08/25 05:51:31;;;;;;;12.80;5.88;;;;;;;26.85;47.93;94570.44;4968061;28;20030;-80
2021/08/25 05:53:56;;;;;;;9.10;5.65;;;;;;;26.20;47.56;94557.41;4969449;28;20053;-81
2021/08/25 05:56:22;;;;;;;6.57;5.70;;;;;;;27.91;42.90;94558.53;4950736;28;20046;-80
2021/08/25 05:58:47;;;;;;;5.65;5.15;;;;;;;29.07;40.51;94559.31;4953457;28;20031;-81
2021/08/25 06:01:14;;;;;;;8.80;4.93;;;;;;;29.45;39.26;94552.72;4959048;28;20046;-80
2021/08/25 06:03:39;;;;;;;6.20;5.00;;;;;;;27.32;44.70;94559.81;4933992;28;20023;-78
2021/08/25 06:06:05;;;;;;;4.95;4.53;;;;;;;27.31;44.11;94568.88;4949899;28;20019;-78
2021/08/25 06:08:30;;;;;;;7.90;4.97;;;;;;;27.42;43.23;94558.91;4949289;28;20082;-78
2021/08/25 06:10:56;;;;;;;7.82;4.80;;;;;;;27.75;42.41;94557.94;4965052;28;20412;-78
2021/08/25 06:13:21;;;;;;;15.13;4.88;;;;;;;27.86;41.60;94556.75;4966222;28;20415;-78
2021/08/25 06:15:47;;;;;;;10.93;4.35;;;;;;;27.74;43.05;94567.81;4966430;28;20536;-79
2021/08/25 06:18:12;;;;;;;15.57;4.55;;;;;;;29.15;39.45;94571.97;4966469;28;20026;-78
2021/08/25 06:20:38;;;;;;;10.48;4.97;;;;;;;32.70;34.39;94567.97;4968283;28;20023;-78
2021/08/25 06:23:03;;;;;;;5.43;4.53;;;;;;;32.61;34.26;94573.38;4965888;28;20027;-78
2021/08/25 06:25:29;;;;;;;7.97;5.10;;;;;;;32.85;34.04;94576.31;4948851;28;20023;-78
2021/08/25 06:27:54;;;;;;;5.97;5.32;;;;;;;31.72;36.95;94576.59;4965726;28;20117;-77
2021/08/25 06:30:20;;;;;;;6.40;5.45;;;;;;;30.71;38.10;94576.63;4964072;28;20031;-76
2021/08/25 06:32:45;;;;;;;7.65;5.60;;;;;;;29.29;41.38;94575.47;4968376;28;20165;-81
2021/08/25 06:35:11;;;;;;;5.75;5.05;;;;;;;27.75;43.68;94573.91;4948956;28;20472;-78
2021/08/25 06:37:36;;;;;;;10.35;5.45;;;;;;;27.49;44.85;94570.78;4949687;28;20022;-77
2021/08/25 06:40:03;;;;;;;6.90;5.13;;;;;;;27.80;44.81;94567.75;4950354;28;20170;-77
2021/08/25 06:42:28;;;;;;;8.43;5.47;;;;;;;28.25;43.17;94559.91;4950849;28;20019;-79
2021/08/25 06:44:54;;;;;;;7.13;5.22;;;;;;;27.92;44.95;94558.25;4968807;28;20031;-77
2021/08/25 06:47:19;;;;;;;5.30;4.90;;;;;;;27.85;44.13;94557.81;4945536;28;20035;-77
2021/08/25 06:49:45;;;;;;;7.72;5.18;;;;;;;28.75;43.70;94550.28;4951361;28;20038;-78
2021/08/25 06:52:10;;;;;;;6.32;5.68;;;;;;;29.59;40.64;94548.16;4966327;28;20031;-78
2021/08/25 06:54:36;;;;;;;5.38;4.90;;;;;;;28.81;41.30;94545.66;4953144;28;20026;-77
2021/08/25 06:57:01;;;;;;;6.60;4.72;;;;;;;28.55;42.37;94523.94;4951278;28;20026;-77
2021/08/25 06:59:26;;;;;;;9.85;5.32;;;;;;;28.80;41.79;94533.41;4935881;28;20034;-77
2021/08/25 07:01:52;;;;;;;8.73;5.18;;;;;;;28.98;41.97;94531.75;4934228;29;20047;-77
2021/08/25 07:04:18;;;;;;;9.32;4.70;;;;;;;28.96;41.08;94528.59;4955440;28;20461;-77
2021/08/25 07:06:44;;;;;;;7.43;4.68;;;;;;;29.20;41.87;94529.16;4949073;28;20053;-77
2021/08/25 07:09:09;;;;;;;5.70;4.00;;;;;;;29.46;40.53;94532.16;4953468;28;20023;-77
2021/08/25 07:11:35;;;;;;;6.72;4.15;;;;;;;29.77;39.59;94535.75;4972083;28;20397;-77
2021/08/25 07:14:01;;;;;;;4.40;4.10;;;;;;;28.36;41.01;94533.88;4970945;28;20027;-78
2021/08/25 07:16:26;;;;;;;4.15;3.85;;;;;;;29.12;40.30;94535.22;4957264;28;20106;-79
2021/08/25 07:18:52;;;;;;;4.95;4.00;;;;;;;28.66;41.18;94535.25;4951339;28;20038;-77
2021/08/25 07:21:17;;;;;;;5.82;4.30;;;;;;;29.21;39.39;94536.09;4929035;28;20027;-79
2021/08/25 07:23:48;;;;;;;4.32;3.92;;;;;;;28.70;41.87;94545.06;4932638;28;20039;-78
2021/08/25 07:26:13;;;;;;;4.05;3.75;;;;;;;28.58;41.50;94531.34;4959376;28;20150;-78
2021/08/25 07:28:43;;;;;;;4.70;4.30;;;;;;;29.43;39.41;94538.88;4951670;28;20034;-80
2021/08/25 07:31:09;;;;;;;6.50;4.30;;;;;;;27.83;41.92;94533.34;4969891;28;20027;-79
2021/08/25 07:33:34;;;;;;;4.63;4.22;;;;;;;28.64;41.41;94542.75;4953862;28;20523;-78
2021/08/25 07:36:00;;;;;;;4.50;4.10;;;;;;;28.45;41.84;94534.00;4953642;28;20023;-79
2021/08/25 07:38:25;;;;;;;3.92;3.60;;;;;;;28.58;41.96;94538.56;4953019;28;20441;-79
2021/08/25 07:40:51;;;;;;;5.07;3.72;;;;;;;29.27;39.88;94541.06;4937666;28;20034;-79
2021/08/25 07:43:16;;;;;;;4.13;3.72;;;;;;;29.46;38.82;94542.81;4965979;28;20054;-78
2021/08/25 07:45:42;;;;;;;3.60;3.30;;;;;;;28.59;40.76;94540.94;4963312;28;20035;-79
2021/08/25 07:48:07;;;;;;;4.07;3.63;;;;;;;28.46;41.45;94547.03;4934708;28;20472;-78
2021/08/25 07:50:33;;;;;;;4.20;3.90;;;;;;;29.03;40.84;94544.97;4967433;28;20050;-79
2021/08/25 07:52:58;;;;;;;4.05;3.75;;;;;;;29.40;40.61;94547.50;4968285;28;20038;-80
2021/08/25 07:55:24;;;;;;;4.57;4.20;;;;;;;28.59;40.74;94527.63;5016900;23;20251;-82
2021/08/25 07:57:50;;;;;;;4.38;4.07;;;;;;;28.95;41.48;94541.13;4953603;28;20085;-80
2021/08/25 08:00:16;;;;;;;4.45;4.05;;;;;;;29.13;40.91;94531.44;4990733;28;20026;-81
2021/08/25 08:02:41;;;;;;;4.90;4.13;;;;;;;29.68;40.44;94524.19;4986169;28;20375;-81
2021/08/25 08:05:07;;;;;;;4.30;3.92;;;;;;;28.35;41.05;94524.31;4968412;28;20031;-79
2021/08/25 08:07:32;;;;;;;4.25;3.85;;;;;;;29.19;41.39;94516.91;4963000;28;20033;-81
2021/08/25 08:09:58;;;;;;;5.45;4.13;;;;;;;27.99;41.31;94515.25;4955382;28;20039;-81
2021/08/25 08:12:23;;;;;;;4.20;3.88;;;;;;;27.24;43.64;94510.69;4991007;28;20035;-78
2021/08/25 08:14:49;;;;;;;4.88;4.38;;;;;;;27.14;45.05;94510.81;4973847;28;20038;-80
2021/08/25 08:17:16;;;;;;;4.88;4.18;;;;;;;29.04;41.85;94509.22;4957443;28;20026;-78
2021/08/25 08:19:42;;;;;;;5.20;3.67;;;;;;;29.35;41.04;94510.19;4990439;28;20030;-81
2021/08/25 08:22:07;;;;;;;5.55;4.00;;;;;;;29.68;40.25;94510.84;4942083;28;20113;-79
2021/08/25 08:24:32;;;;;;;4.03;3.75;;;;;;;29.99;40.09;94503.72;4972351;28;20546;-81
2021/08/25 08:26:58;;;;;;;6.32;3.50;;;;;;;30.28;38.94;94503.31;4973792;28;20077;-81
2021/08/25 08:29:24;;;;;;;5.60;4.13;;;;;;;30.16;39.13;94509.22;4957362;28;20034;-81
2021/08/25 08:31:49;;;;;;;6.28;3.88;;;;;;;30.45;38.83;94508.81;4990695;28;20411;-80
2021/08/25 08:34:15;;;;;;;4.80;4.40;;;;;;;30.03;38.82;94499.38;4971921;28;20052;-79
2021/08/25 08:36:41;;;;;;;4.40;3.45;;;;;;;29.10;41.04;94500.03;4973701;28;20034;-78
2021/08/25 08:39:06;;;;;;;4.53;4.18;;;;;;;29.63;39.60;94500.28;4974000;28;20026;-79
2021/08/25 08:41:31;;;;;;;5.28;4.00;;;;;;;29.79;39.81;94496.97;4990458;28;20031;-77
2021/08/25 08:43:58;;;;;;;4.50;3.92;;;;;;;30.36;39.69;94496.44;4953750;28;20035;-80
2021/08/25 08:46:23;;;;;;;6.40;4.00;;;;;;;30.50;39.44;94497.19;4935334;28;20039;-80
2021/08/25 08:48:49;;;;;;;4.10;3.80;;;;;;;29.47;39.36;94491.81;4973572;28;20435;-77
2021/08/25 08:51:18;;;;;;;4.40;4.10;;;;;;;29.17;40.96;94481.72;4972548;28;20026;-79
2021/08/25 08:53:44;;;;;;;4.43;4.07;;;;;;;29.79;40.79;94480.16;4984154;28;21794;-77
2021/08/25 08:56:09;;;;;;;4.18;3.88;;;;;;;30.68;39.40;94475.56;4968165;28;20055;-78
2021/08/25 08:58:38;;;;;;;4.47;4.07;;;;;;;30.80;37.55;94481.13;4977105;28;20506;-77
2021/08/25 09:01:03;;;;;;;4.00;3.67;;;;;;;31.19;36.91;94471.53;4976673;28;20504;-78
2021/08/25 09:03:29;;;;;;;6.43;4.10;;;;;;;30.56;36.75;94470.03;4939453;28;20109;-79
2021/08/25 09:05:58;;;;;;;4.50;4.10;;;;;;;30.83;38.40;94463.66;4964612;28;20488;-78
2021/08/25 09:08:27;;;;;;;4.72;4.32;;;;;;;30.86;36.18;94468.38;4977255;28;20513;-78
2021/08/25 09:11:13;;;;;;;4.63;4.15;;;;;;;30.93;38.17;94468.75;4980571;28;20041;-79
2021/08/25 09:13:48;;;;;;;4.05;3.70;;;;;;;30.44;37.80;94461.75;4962999;28;20114;-80
2021/08/25 09:16:33;;;;;;;6.85;4.43;;;;;;;30.44;38.27;94461.75;4978230;28;20657;-78
2021/08/25 09:19:17;;;;;;;4.50;4.10;;;;;;;31.03;38.37;94468.50;4978762;28;20038;-79
2021/08/25 09:21:50;;;;;;;7.53;3.90;;;;;;;31.69;36.68;94464.69;4958215;28;20031;-77
2021/08/25 09:24:16;;;;;;;4.43;4.03;;;;;;;31.70;35.99;94468.94;4964414;28;20027;-79
2021/08/25 09:27:03;;;;;;;4.55;4.10;;;;;;;30.44;38.18;94469.00;4937748;29;20058;-79
2021/08/25 09:29:29;;;;;;;5.68;3.85;;;;;;;30.72;38.05;94463.16;4955478;28;20038;-79
2021/08/25 09:31:54;;;;;;;4.20;3.83;;;;;;;32.09;36.61;94462.66;4961281;28;20019;-79
2021/08/25 09:34:30;;;;;;;4.40;4.00;;;;;;;32.02;35.80;94456.16;4964049;28;20027;-80
2021/08/25 09:37:13;;;;;;;5.65;3.53;;;;;;;32.40;35.82;94454.38;4931755;28;20097;-77
2021/08/25 09:39:43;;;;;;;3.78;3.35;;;;;;;32.34;35.41;94458.34;4958057;28;20085;-78
2021/08/25 09:42:09;;;;;;;5.18;4.35;;;;;;;32.78;34.22;94452.53;4957493;28;20492;-79
2021/08/25 09:44:35;;;;;;;4.07;3.70;;;;;;;32.92;34.52;94462.28;4961640;28;20102;-80
2021/08/25 09:47:01;;;;;;;4.05;3.65;;;;;;;32.39;35.44;94452.81;4958023;28;20027;-80
2021/08/25 09:49:26;;;;;;;5.25;4.40;;;;;;;31.97;35.83;94459.00;4943464;28;20109;-80
2021/08/25 09:51:54;;;;;;;5.63;4.90;;;;;;;31.83;38.03;94468.00;4958084;28;20457;-79
2021/08/25 09:54:19;;;;;;;8.13;5.57;;;;;;;31.93;38.65;94468.78;4954684;28;20023;-80
2021/08/25 09:56:45;;;;;;;6.80;4.90;;;;;;;31.84;39.56;94463.44;4934828;28;20054;-75
2021/08/25 09:59:13;;;;;;;6.25;5.40;;;;;;;31.66;38.84;94464.53;4952551;28;20081;-77
2021/08/25 10:01:39;;;;;;;5.57;4.88;;;;;;;31.65;39.56;94453.03;4952379;28;20099;-75
2021/08/25 10:04:27;;;;;;;5.47;5.07;;;;;;;32.06;38.27;94451.78;4945574;28;20438;-76
2021/08/25 10:06:52;;;;;;;6.22;5.18;;;;;;;32.06;38.14;94447.19;4959473;28;20090;-78
2021/08/25 10:09:18;;;;;;;6.03;5.30;;;;;;;31.66;39.40;94449.22;4937908;28;20038;-77
2021/08/25 10:11:51;;;;;;;8.32;4.78;;;;;;;31.44;37.64;94435.16;4979289;28;20026;-80
2021/08/25 10:14:17;;;;;;;5.32;4.90;;;;;;;31.73;38.12;94444.19;4947945;28;20141;-75
2021/08/25 10:16:48;;;;;;;6.57;4.57;;;;;;;31.65;38.36;94444.19;4957684;28;20138;-79
2021/08/25 10:19:36;;;;;;;4.68;4.28;;;;;;;31.35;39.14;94438.63;4950970;28;20031;-77
2021/08/25 10:22:14;;;;;;;5.05;4.70;;;;;;;31.31;38.85;94428.84;4962767;28;20037;-80
2021/08/25 10:24:51;;;;;;;11.57;5.18;;;;;;;31.13;39.20;94435.28;4966897;28;20037;-78
2021/08/25 10:27:16;;;;;;;9.40;5.75;;;;;;;30.33;40.82;94434.47;4968103;28;20031;-81
2021/08/25 10:30:05;;;;;;;6.40;5.90;;;;;;;30.51;40.60;94435.38;4965454;28;20023;-80
2021/08/25 10:32:38;;;;;;;10.18;6.13;;;;;;;30.75;40.54;94437.69;4950261;28;20053;-76
2021/08/25 10:35:15;;;;;;;6.28;5.68;;;;;;;30.55;40.27;94439.00;4931366;28;20065;-75
2021/08/25 10:37:41;;;;;;;6.60;5.82;;;;;;;30.71;40.70;94444.72;4967803;28;20377;-79
2021/08/25 10:40:07;;;;;;;6.70;6.20;;;;;;;30.91;39.60;94438.03;4950580;28;20023;-78
2021/08/25 10:42:54;;;;;;;11.20;7.13;;;;;;;30.50;41.37;94449.06;4958388;28;20034;-77
2021/08/25 10:45:38;;;;;;;6.93;6.25;;;;;;;30.82;40.52;94446.81;4963004;28;20062;-75
2021/08/25 10:48:08;;;;;;;11.68;6.68;;;;;;;30.74;39.94;94444.13;4958152;28;20027;-76
2021/08/25 10:50:49;;;;;;;7.75;6.95;;;;;;;30.42;40.35;94444.44;4955374;28;20027;-78
2021/08/25 10:53:27;;;;;;;8.10;7.13;;;;;;;29.98;41.30;94453.28;4954513;28;20039;-77
2021/08/25 10:56:14;;;;;;;10.60;9.57;;;;;;;29.54;43.08;94465.47;4958440;28;20047;-81
2021/08/25 10:58:44;;;;;;;10.55;9.75;;;;;;;29.16;43.54;94453.47;4965756;28;20110;-80
2021/08/25 11:01:26;;;;;;;16.95;10.88;;;;;;;28.84;44.62;94450.91;4960956;28;20027;-78
2021/08/25 11:03:55;;;;;;;13.10;11.82;;;;;;;28.39;45.04;94445.34;4960086;28;20555;-80
2021/08/25 11:06:27;;;;;;;;;;;;;;;28.62;45.18;94449.72;4938286;28;20118;-78
2021/08/25 11:08:52;;;;;;;12.48;10.40;;;;;;;28.41;47.21;94443.19;4963191;28;19919;-81
2021/08/25 11:11:17;;;;;;;10.27;9.48;;;;;;;28.42;46.33;94434.09;4948436;28;20386;-81
2021/08/25 11:13:43;;;;;;;11.02;10.18;;;;;;;28.49;46.25;94434.50;4956241;28;20015;-78
2021/08/25 11:16:25;;;;;;;11.95;10.85;;;;;;;28.26;45.97;94425.56;4939889;28;20046;-78
2021/08/25 11:18:50;;;;;;;11.60;10.60;;;;;;;28.55;46.72;94414.66;4944303;28;20027;-78
2021/08/25 11:21:16;;;;;;;10.82;9.82;;;;;;;28.73;44.74;94418.34;4956749;28;20030;-78
2021/08/25 11:23:53;;;;;;;10.95;9.95;;;;;;;29.20;43.29;94420.56;4949300;28;20027;-76
2021/08/25 11:26:19;;;;;;;12.07;11.18;;;;;;;29.94;42.48;94415.69;4960468;28;20041;-77
2021/08/25 11:28:50;;;;;;;11.90;10.80;;;;;;;30.31;41.98;94420.59;4962228;28;20039;-78
2021/08/25 11:31:25;;;;;;;10.38;9.57;;;;;;;30.61;41.69;94424.41;4947671;28;20035;-80
2021/08/25 11:33:52;;;;;;;10.38;9.43;;;;;;;30.07;41.59;94427.41;4938528;28;20106;-77
2021/08/25 11:36:17;;;;;;;9.90;9.10;;;;;;;30.30;41.24;94427.06;4957880;28;20024;-78
2021/08/25 11:38:43;;;;;;;9.73;8.85;;;;;;;30.25;41.67;94423.72;4937996;28;20027;-77
2021/08/25 11:41:08;;;;;;;10.25;9.45;;;;;;;30.46;41.03;94422.13;4957557;28;20118;-78
2021/08/25 11:43:34;;;;;;;10.55;8.93;;;;;;;29.77;41.12;94420.88;4959214;28;20035;-79
2021/08/25 11:46:03;;;;;;;10.00;8.88;;;;;;;29.95;40.94;94411.13;4960703;28;20505;-78
2021/08/25 11:48:29;;;;;;;9.50;8.80;;;;;;;30.03;41.95;94419.19;4959066;28;20027;-81
2021/08/25 11:50:55;;;;;;;11.10;10.20;;;;;;;29.87;43.77;94426.00;4964005;28;20035;-82
2021/08/25 11:53:21;;;;;;;15.13;11.20;;;;;;;29.45;44.99;94411.22;4964711;28;20102;-78
2021/08/25 11:55:48;;;;;;;14.85;10.68;;;;;;;29.40;44.78;94426.56;4948908;28;20457;-78
2021/08/25 11:58:24;;;;;;;11.43;10.02;;;;;;;29.35;44.34;94416.78;4957862;28;20034;-79
2021/08/25 12:00:50;;;;;;;11.38;10.48;;;;;;;29.21;44.99;94416.00;4958551;28;20023;-76
2021/08/25 12:03:15;;;;;;;12.40;11.30;;;;;;;29.76;44.16;94405.97;4960513;28;20481;-80
2021/08/25 12:05:53;;;;;;;12.65;11.38;;;;;;;29.70;43.63;94399.94;4958471;28;20468;-77
2021/08/25 12:08:18;;;;;;;11.55;10.45;;;;;;;29.77;44.02;94389.63;4962676;28;20085;-77
2021/08/25 12:10:43;;;;;;;11.40;10.30;;;;;;;29.69;43.95;94390.38;4942364;28;20034;-78
2021/08/25 12:13:10;;;;;;;10.52;9.43;;;;;;;29.45;43.46;94395.19;4960279;28;20129;-77
2021/08/25 12:15:46;;;;;;;9.30;8.57;;;;;;;29.35;42.69;94400.00;4947463;28;20054;-79
2021/08/25 12:18:12;;;;;;;8.60;7.57;;;;;;;29.02;43.02;94402.00;4958881;28;20457;-79
2021/08/25 12:20:39;;;;;;;8.57;7.88;;;;;;;29.14;41.84;94402.28;4930583;28;20028;-82
2021/08/25 12:23:05;;;;;;;9.95;8.93;;;;;;;28.91;43.71;94408.63;4942583;28;20436;-82
2021/08/25 12:25:55;;;;;;;11.65;10.35;;;;;;;28.65;45.69;94405.66;4962678;28;20027;-79
2021/08/25 12:28:34;;;;;;;13.15;10.20;;;;;;;28.48;46.17;94405.47;4955799;28;20042;-80
2021/08/25 12:31:15;;;;;;;12.73;11.73;;;;;;;28.61;46.35;94380.66;4969193;28;20086;-80
2021/08/25 12:33:42;;;;;;;12.13;11.07;;;;;;;28.46;46.72;94408.44;4952217;28;20078;-82
2021/08/25 12:36:30;;;;;;;12.90;11.68;;;;;;;28.61;46.00;94410.78;4968702;28;20027;-82
2021/08/25 12:39:05;;;;;;;13.55;12.13;;;;;;;28.91;46.39;94401.44;4950660;29;20031;-82
2021/08/25 12:41:30;;;;;;;13.05;11.88;;;;;;;27.96;47.44;94399.47;4954787;28;20603;-82
2021/08/25 12:43:56;;;;;;;13.65;12.35;;;;;;;27.39;50.42;94395.25;4951256;28;20030;-79
2021/08/25 12:46:21;;;;;;;12.05;11.02;;;;;;;27.66;48.79;94395.41;4960589;28;20082;-81
2021/08/25 12:48:47;;;;;;;12.40;10.90;;;;;;;27.37;48.68;94391.31;4948775;29;20666;-81
2021/08/25 12:51:18;;;;;;;12.05;10.57;;;;;;;27.44;48.33;94391.78;4950815;28;20031;-83
2021/08/25 12:53:48;;;;;;;12.65;11.45;;;;;;;26.89;51.51;94378.16;4948565;28;20062;-81
2021/08/25 12:56:14;;;;;;;13.40;12.10;;;;;;;26.69;53.22;94378.38;4922510;28;20062;-81
2021/08/25 12:58:39;;;;;;;13.73;12.32;;;;;;;26.37;51.96;94373.72;4968774;28;20019;-81
2021/08/25 13:01:05;;;;;;;11.65;10.57;;;;;;;26.87;51.43;94366.25;4962338;28;20031;-82
2021/08/25 13:03:32;;;;;;;11.85;10.70;;;;;;;27.84;50.11;94366.38;4958083;28;20041;-82
2021/08/25 13:06:03;;;;;;;13.45;10.48;;;;;;;28.47;48.55;94363.91;4961122;28;20062;-81
2021/08/25 13:08:29;;;;;;;12.68;10.07;;;;;;;28.84;46.06;94352.22;4947687;28;20019;-81
2021/08/25 13:10:57;;;;;;;10.48;9.60;;;;;;;28.66;46.19;94357.41;4933362;29;20524;-81
2021/08/25 13:13:22;;;;;;;14.30;9.38;;;;;;;28.36;45.63;94355.31;4950159;28;20031;-82
2021/08/25 13:15:48;;;;;;;9.75;8.75;;;;;;;27.45;46.59;94338.28;4945164;28;20050;-81
2021/08/25 13:18:13;;;;;;;9.95;9.15;;;;;;;28.23;46.51;94340.09;4987130;28;20034;-81
2021/08/25 13:20:39;;;;;;;11.50;9.95;;;;;;;28.37;45.19;94345.44;4971375;28;20030;-81
2021/08/25 13:23:04;;;;;;;10.43;9.50;;;;;;;27.98;45.38;94351.19;4962352;28;20048;-81
2021/08/25 13:25:30;;;;;;;9.52;8.50;;;;;;;28.77;43.86;94334.75;4959675;28;20405;-81
2021/08/25 13:27:55;;;;;;;9.85;8.85;;;;;;;28.50;44.30;94334.00;4940983;28;20070;-80
2021/08/25 13:30:21;;;;;;;10.60;8.75;;;;;;;27.90;45.41;94322.59;4951315;28;20043;-81
2021/08/25 13:32:46;;;;;;;8.63;7.85;;;;;;;28.37;45.25;94330.25;4956298;28;20047;-82
2021/08/25 13:35:12;;;;;;;9.38;8.57;;;;;;;27.90;45.94;94314.63;4962175;28;20031;-81
2021/08/25 13:37:39;;;;;;;9.32;8.65;;;;;;;27.68;45.68;94320.56;4968189;28;20036;-81
2021/08/25 13:40:05;;;;;;;9.82;8.43;;;;;;;27.92;46.29;94313.22;4951276;28;20412;-81
2021/08/25 13:42:31;;;;;;;8.55;7.65;;;;;;;27.85;45.50;94294.19;4965701;28;20023;-81
2021/08/25 13:44:57;;;;;;;10.32;9.30;;;;;;;27.46;46.21;94297.25;4939109;28;20023;-82
2021/08/25 13:47:22;;;;;;;9.25;8.45;;;;;;;28.08;45.50;94295.13;4942514;28;20105;-80
2021/08/25 13:49:47;;;;;;;9.18;8.32;;;;;;;28.24;45.01;94293.72;4954569;28;20035;-80
2021/08/25 13:52:13;;;;;;;8.68;7.97;;;;;;;28.35;44.45;94289.78;4964607;28;20501;-80
2021/08/25 13:54:38;;;;;;;9.18;8.27;;;;;;;28.13;45.66;94292.34;4976057;28;20026;-81
2021/08/25 13:57:06;;;;;;;9.07;8.18;;;;;;;27.74;45.94;94290.91;4973380;28;20050;-80
2021/08/25 13:59:31;;;;;;;9.38;8.00;;;;;;;27.63;46.73;94299.38;4969911;28;20162;-80
2021/08/25 14:01:57;;;;;;;9.18;7.80;;;;;;;27.72;45.81;94308.25;4935099;28;20122;-79
2021/08/25 14:04:22;;;;;;;9.23;8.23;;;;;;;27.91;45.70;94303.66;4954510;28;20055;-80
2021/08/25 14:06:48;;;;;;;16.35;8.13;;;;;;;27.68;46.02;94292.06;4926363;28;20042;-77
2021/08/25 14:09:13;;;;;;;8.82;8.13;;;;;;;27.33;46.04;94282.00;4953469;28;20027;-79
2021/08/25 14:11:39;;;;;;;7.05;6.22;;;;;;;27.20;45.10;94291.53;4931448;29;20042;-79
2021/08/25 14:14:04;;;;;;;7.70;7.00;;;;;;;27.05;45.20;94294.44;4914537;28;21012;-78
2021/08/25 14:16:32;;;;;;;7.53;6.90;;;;;;;27.05;45.76;94314.91;4950128;28;20502;-80
2021/08/25 14:19:00;;;;;;;6.43;6.03;;;;;;;27.13;45.45;94338.22;4949433;28;20023;-80
2021/08/25 14:21:25;;;;;;;6.63;6.03;;;;;;;27.08;45.66;94356.88;4950516;28;20039;-80
2021/08/25 14:23:50;;;;;;;9.80;6.50;;;;;;;27.19;46.42;94412.34;4939904;28;20034;-79
2021/08/25 14:26:16;;;;;;;13.32;10.13;;;;;;;26.14;52.89;94448.81;4937080;28;20038;-80
2021/08/25 14:28:41;;;;;;;10.80;9.80;;;;;;;25.02;55.46;94470.00;4942303;28;20105;-80
2021/08/25 14:31:07;;;;;;;12.23;10.68;;;;;;;23.97;62.70;94449.81;4950235;28;20038;-78
2021/08/25 14:33:32;;;;;;;22.08;9.23;;;;;;;22.91;66.57;94399.47;4874158;28;20052;-77
2021/08/25 14:35:58;;;;;;;9.65;7.75;;;;;;;20.72;74.25;94374.44;4944234;28;20132;-75
2021/08/25 14:38:23;;;;;;;8.70;8.05;;;;;;;21.67;74.09;94401.94;4915847;29;20512;-75
2021/08/25 14:40:49;;;;;;;9.63;8.85;;;;;;;21.51;74.85;94396.53;4915259;29;20404;-80
2021/08/25 14:43:15;;;;;;;10.35;9.27;;;;;;;21.65;75.37;94409.28;4930858;29;20059;-80
2021/08/25 14:45:40;;;;;;;11.45;10.55;;;;;;;21.54;75.36;94401.31;4930856;29;20098;-80
2021/08/25 14:48:06;;;;;;;10.43;9.18;;;;;;;21.95;74.46;94388.44;4914582;29;20043;-82
2021/08/25 14:50:36;;;;;;;9.25;8.45;;;;;;;21.72;73.97;94383.53;4915828;29;20035;-81
2021/08/25 14:53:01;;;;;;;11.15;10.30;;;;;;;21.06;77.47;94382.16;4930362;29;20039;-82
2021/08/25 14:55:28;;;;;;;11.82;10.68;;;;;;;20.61;79.22;94393.03;4930894;29;20529;-80
2021/08/25 14:57:54;;;;;;;12.77;11.68;;;;;;;20.78;77.56;94414.78;4953495;28;20031;-82
2021/08/25 15:00:20;;;;;;;13.35;12.25;;;;;;;20.46;78.25;94428.63;4949255;28;20082;-80
2021/08/25 15:02:45;;;;;;;13.25;12.13;;;;;;;19.97;80.01;94403.25;4957303;28;20667;-82
2021/08/25 15:05:11;;;;;;;12.02;10.85;;;;;;;20.26;78.49;94398.63;4932537;28;20647;-79
2021/08/25 15:07:36;;;;;;;14.45;12.23;;;;;;;20.28;77.83;94404.47;4966821;28;20031;-80
2021/08/25 15:10:05;;;;;;;13.38;12.10;;;;;;;20.26;78.11;94414.41;4948885;28;20034;-81
2021/08/25 15:12:30;;;;;;;11.40;10.60;;;;;;;20.61;76.11;94400.91;4966339;28;20029;-81
2021/08/25 15:14:57;;;;;;;10.32;9.55;;;;;;;20.83;73.84;94407.75;4963265;28;20027;-81
2021/08/25 15:17:22;;;;;;;13.20;11.95;;;;;;;20.98;72.22;94421.06;4966083;28;20400;-80
2021/08/25 15:19:54;;;;;;;12.20;11.13;;;;;;;21.02;72.51;94432.72;4968807;28;20038;-81
2021/08/25 15:22:22;;;;;;;11.98;11.00;;;;;;;21.20;73.15;94457.94;4966697;28;20027;-80
2021/08/25 15:24:47;;;;;;;12.13;11.13;;;;;;;21.32;72.75;94448.03;4964044;28;20514;-81
2021/08/25 15:27:13;;;;;;;10.82;10.02;;;;;;;21.35;74.23;94429.09;4968659;28;20424;-81
2021/08/25 15:29:40;;;;;;;12.63;11.43;;;;;;;21.33;76.36;94423.28;4955103;28;20427;-80
2021/08/25 15:32:06;;;;;;;12.02;11.13;;;;;;;21.33;78.04;94419.84;4968965;28;20436;-80
2021/08/25 15:34:32;;;;;;;15.07;13.95;;;;;;;21.12;82.47;94413.59;4970612;28;20050;-80
2021/08/25 15:36:57;;;;;;;14.05;12.60;;;;;;;20.73;80.12;94426.06;4941188;28;20030;-81
2021/08/25 15:39:23;;;;;;;13.82;12.38;;;;;;;20.42;83.13;94439.91;4968035;28;20123;-81
2021/08/25 15:41:52;;;;;;;13.40;12.38;;;;;;;20.55;82.92;94444.00;4947608;28;20031;-79
2021/08/25 15:44:18;;;;;;;14.70;13.60;;;;;;;20.29;83.60;94453.41;4951391;28;20090;-80
2021/08/25 15:46:45;;;;;;;15.05;14.02;;;;;;;20.68;83.63;94464.69;4954016;28;20071;-79
2021/08/25 15:49:10;;;;;;;13.20;12.20;;;;;;;20.57;81.74;94460.34;4911703;28;20039;-80
2021/08/25 15:51:36;;;;;;;13.02;12.13;;;;;;;20.33;81.60;94447.41;4960455;28;20042;-80
2021/08/25 15:54:01;;;;;;;13.65;12.63;;;;;;;20.30;81.95;94460.25;4954274;28;20046;-80
2021/08/25 15:56:29;;;;;;;14.02;12.93;;;;;;;20.35;82.64;94447.97;4959191;28;20054;-81
2021/08/25 15:58:54;;;;;;;12.57;11.55;;;;;;;20.21;82.12;94438.81;4941288;28;20046;-76
2021/08/25 16:01:20;;;;;;;12.65;11.55;;;;;;;20.13;82.31;94426.06;4955544;28;20404;-81
2021/08/25 16:03:46;;;;;;;16.10;13.13;;;;;;;19.87;86.95;94411.75;4947830;29;20031;-81
2021/08/25 16:06:11;;;;;;;15.45;14.07;;;;;;;19.76;87.69;94385.56;4932158;29;20031;-80
2021/08/25 16:08:38;;;;;;;15.32;13.75;;;;;;;19.55;88.95;94366.09;4933131;29;20027;-77
2021/08/25 16:11:05;;;;;;;17.48;15.88;;;;;;;19.43;90.57;94355.66;4959448;28;20093;-79
2021/08/25 16:13:31;;;;;;;15.55;14.02;;;;;;;19.44;90.65;94374.84;4961378;28;20035;-78
2021/08/25 16:15:58;;;;;;;15.32;13.85;;;;;;;19.61;89.76;94399.28;4942575;28;20883;-79
2021/08/25 16:18:23;;;;;;;18.00;16.52;;;;;;;19.84;91.53;94408.84;4968949;28;20125;-79
2021/08/25 16:20:49;;;;;;;20.15;18.35;;;;;;;19.88;92.17;94415.19;4954787;28;20086;-79
2021/08/25 16:23:15;;;;;;;19.95;18.40;;;;;;;19.87;94.29;94413.59;4964589;28;20030;-80
2021/08/25 16:25:40;;;;;;;20.98;19.48;;;;;;;20.03;94.57;94412.78;4968697;28;20465;-79
2021/08/25 16:28:06;;;;;;;18.13;16.73;;;;;;;20.08;94.83;94420.72;4957495;28;20023;-79
2021/08/25 16:30:31;;;;;;;17.15;15.82;;;;;;;19.95;92.80;94421.06;4966843;28;20030;-79
2021/08/25 16:32:57;;;;;;;17.80;16.15;;;;;;;19.96;92.95;94420.03;4947361;28;20483;-78